Time;durP1;ratioP1;P1;durP2;ratioP2;P2;SDS_P1;SDS_P2;PMS_P1;PMS_P2;Temp;Humidity;BMP_temperature;BMP_pressure;BME280_temperature;BME280_humidity;BME280_pressure;Samples;Min_cycle;Max_cycle;Signal;HPM_P1;HPM_P2
2023/02/05 10:12:30;;;;;;;41.70;38.00;;;3.30;99.90;;;;;;5146371;27;20562;-76
2023/02/05 10:15:08;;;;;;;42.93;39.23;;;3.80;99.90;;;;;;5146496;27;20973;-77
2023/02/05 10:17:46;;;;;;;44.70;40.80;;;3.90;99.90;;;;;;5146754;27;20450;-77
2023/02/05 10:20:37;;;;;;;44.37;39.97;;;3.90;99.90;;;;;;5146533;27;20493;-76
2023/02/05 10:23:14;;;;;;;41.13;38.03;;;3.90;99.90;;;;;;5144338;27;20465;-76
2023/02/05 10:26:05;;;;;;;42.00;38.37;;;3.90;99.90;;;;;;5146188;27;20845;-77
2023/02/05 10:28:59;;;;;;;43.87;39.00;;;4.00;99.90;;;;;;5146480;27;20763;-76
2023/02/05 10:31:40;;;;;;;43.23;39.30;;;4.00;99.90;;;;;;5146567;27;20690;-76
2023/02/05 10:34:17;;;;;;;43.83;39.90;;;4.00;99.90;;;;;;5146628;27;20543;-77
2023/02/05 10:36:47;;;;;;;42.07;38.37;;;4.00;99.90;;;;;;5146402;27;20537;-76
2023/02/05 10:39:16;;;;;;;42.70;39.37;;;4.00;99.90;;;;;;5146115;27;20447;-76
2023/02/05 10:41:46;;;;;;;41.37;38.17;;;4.10;99.90;;;;;;5146076;27;20534;-76
2023/02/05 10:44:20;;;;;;;40.87;37.30;;;4.10;99.90;;;;;;5146100;27;20450;-75
2023/02/05 10:46:50;;;;;;;42.77;39.33;;;4.10;99.90;;;;;;5146146;27;20507;-73
2023/02/05 10:49:23;;;;;;;43.67;40.03;;;4.10;99.90;;;;;;5146133;27;20554;-73
2023/02/05 10:51:50;;;;;;;43.40;39.23;;;4.10;99.90;;;;;;5146065;27;20455;-74
2023/02/05 10:54:22;;;;;;;43.13;39.43;;;4.20;99.90;;;;;;5145746;27;20919;-76
2023/02/05 10:56:49;;;;;;;43.17;39.40;;;4.30;99.90;;;;;;5146227;27;20496;-76
2023/02/05 10:59:22;;;;;;;47.03;42.33;;;4.40;99.90;;;;;;5146071;27;20455;-74
2023/02/05 11:01:50;;;;;;;44.60;40.90;;;4.40;99.90;;;;;;5146198;27;20526;-75
2023/02/05 11:04:21;;;;;;;48.37;43.20;;;4.40;99.90;;;;;;5145743;27;20446;-75
2023/02/05 11:06:50;;;;;;;46.10;42.00;;;4.50;99.90;;;;;;5146045;27;20471;-75
2023/02/05 11:09:32;;;;;;;45.83;42.17;;;4.50;99.90;;;;;;5146134;27;20515;-75
2023/02/05 11:12:02;;;;;;;44.70;41.27;;;4.50;99.90;;;;;;5138681;27;20690;-75
2023/02/05 11:14:34;;;;;;;45.60;41.87;;;4.40;99.90;;;;;;5131503;27;20447;-75
2023/02/05 11:17:07;;;;;;;47.33;42.57;;;4.50;99.90;;;;;;5131285;27;20449;-75
2023/02/05 11:19:34;;;;;;;44.10;40.43;;;4.50;99.90;;;;;;5131793;27;20795;-75
2023/02/05 11:22:03;;;;;;;45.60;41.80;;;4.50;99.90;;;;;;5131119;27;20543;-75
2023/02/05 11:24:32;;;;;;;43.47;39.93;;;4.50;99.90;;;;;;5131209;27;20447;-76
2023/02/05 11:27:28;;;;;;;48.20;43.90;;;4.50;99.90;;;;;;5131123;27;20730;-76
2023/02/05 11:29:58;;;;;;;46.20;41.87;;;4.60;99.90;;;;;;5071951;27;20462;-76
2023/02/05 11:32:34;;;;;;;45.40;41.70;;;4.60;99.90;;;;;;5131015;27;20891;-76
2023/02/05 11:35:18;;;;;;;42.90;39.40;;;4.60;99.90;;;;;;5131255;27;20593;-76
2023/02/05 11:37:47;;;;;;;44.90;41.30;;;4.50;99.90;;;;;;5131021;27;20532;-77
2023/02/05 11:40:22;;;;;;;44.30;40.67;;;4.50;99.90;;;;;;5130822;27;20511;-77
2023/02/05 11:43:02;;;;;;;43.57;40.17;;;4.50;99.90;;;;;;5131038;27;20448;-77
2023/02/05 11:45:32;;;;;;;45.40;41.50;;;4.60;99.90;;;;;;5131015;27;20451;-77
2023/02/05 11:48:02;;;;;;;47.00;42.67;;;4.70;99.90;;;;;;5130737;27;20450;-78
2023/02/05 11:50:31;;;;;;;45.13;41.50;;;4.80;99.90;;;;;;5130734;27;20458;-77
2023/02/05 11:53:08;;;;;;;47.43;43.53;;;5.00;99.90;;;;;;5130600;27;20475;-78
2023/02/05 11:55:35;;;;;;;47.70;43.30;;;5.00;99.90;;;;;;5130973;27;20508;-78
2023/02/05 11:58:04;;;;;;;46.10;42.50;;;5.00;99.90;;;;;;5130768;27;20453;-77
2023/02/05 12:00:32;;;;;;;44.17;40.63;;;5.00;99.90;;;;;;5130571;27;20536;-77
2023/02/05 12:03:05;;;;;;;44.83;40.63;;;5.10;99.90;;;;;;5130823;27;20467;-76
2023/02/05 12:05:37;;;;;;;46.67;42.80;;;5.20;99.90;;;;;;5130625;27;20780;-76
2023/02/05 12:08:10;;;;;;;45.57;41.87;;;5.20;99.90;;;;;;5130901;27;20445;-76
2023/02/05 12:10:43;;;;;;;45.67;41.70;;;5.20;99.90;;;;;;5130527;27;20496;-76
2023/02/05 12:13:18;;;;;;;44.50;40.70;;;5.20;99.90;;;;;;5130526;27;20478;-76
2023/02/05 12:15:54;;;;;;;45.87;41.70;;;5.20;99.90;;;;;;5130577;27;20558;-76
2023/02/05 12:18:31;;;;;;;46.80;43.00;;;5.30;99.90;;;;;;5130581;27;20537;-76
2023/02/05 12:21:18;;;;;;;44.77;41.27;;;5.30;99.90;;;;;;5130275;27;20516;-75
2023/02/05 12:24:04;;;;;;;44.23;40.70;;;5.30;99.90;;;;;;5129213;27;20454;-75
2023/02/05 12:26:33;;;;;;;45.80;42.07;;;5.30;99.90;;;;;;5130191;27;20452;-76
2023/02/05 12:29:28;;;;;;;45.70;42.00;;;5.20;99.90;;;;;;5130076;27;20501;-75
2023/02/05 12:32:04;;;;;;;45.87;41.60;;;5.30;99.90;;;;;;5129913;27;20491;-75
2023/02/05 12:34:41;;;;;;;43.97;40.27;;;5.30;99.90;;;;;;5130071;27;20480;-75
2023/02/05 12:37:23;;;;;;;46.87;42.57;;;5.30;99.90;;;;;;5129931;27;20482;-75
2023/02/05 12:39:53;;;;;;;45.70;42.50;;;5.30;99.90;;;;;;5130368;27;20556;-75
2023/02/05 12:42:28;;;;;;;47.37;43.10;;;5.30;99.90;;;;;;5129971;27;20541;-76
2023/02/05 12:45:21;;;;;;;46.17;42.17;;;5.30;99.90;;;;;;5129926;27;20927;-75
2023/02/05 12:48:05;;;;;;;47.13;43.47;;;5.40;99.90;;;;;;5129913;27;20468;-75
2023/02/05 12:50:53;;;;;;;45.60;41.80;;;5.60;99.90;;;;;;5129580;27;20472;-74
2023/02/05 12:53:34;;;;;;;47.03;42.87;;;5.80;99.90;;;;;;5125931;27;20460;-75
2023/02/05 12:56:21;;;;;;;42.93;39.83;;;6.00;99.90;;;;;;5129810;27;20452;-74
2023/02/05 12:58:53;;;;;;;42.50;39.40;;;5.90;99.90;;;;;;5129784;27;20531;-74
2023/02/05 13:01:23;;;;;;;39.37;36.73;;;5.60;99.90;;;;;;5130100;27;20449;-75
2023/02/05 13:03:54;;;;;;;38.80;36.27;;;5.60;99.90;;;;;;5130249;27;20463;-75
2023/02/05 13:06:26;;;;;;;40.37;37.67;;;5.60;99.90;;;;;;5129935;27;20531;-75
2023/02/05 13:09:00;;;;;;;41.70;39.00;;;5.80;99.90;;;;;;5130078;27;20452;-75
2023/02/05 13:11:30;;;;;;;39.87;37.00;;;5.90;99.90;;;;;;5129168;27;20496;-75
2023/02/05 13:14:02;;;;;;;42.00;39.10;;;6.00;99.90;;;;;;5129651;27;20927;-75
2023/02/05 13:16:36;;;;;;;40.93;38.23;;;6.00;99.90;;;;;;5129744;27;20517;-75
2023/02/05 13:19:17;;;;;;;41.97;39.23;;;6.10;99.90;;;;;;5129845;27;20823;-75
2023/02/05 13:30:12;;;;;;;40.97;38.40;;;6.10;99.90;;;;;;5129287;27;20444;-75
2023/02/05 13:32:42;;;;;;;41.00;38.43;;;6.20;99.90;;;;;;5129053;27;20491;-75
2023/02/05 13:35:11;;;;;;;41.50;38.70;;;6.40;99.90;;;;;;5128781;27;20954;-75
2023/02/05 13:38:00;;;;;;;43.57;40.17;;;6.50;99.90;;;;;;5129031;27;20452;-75
2023/02/05 13:40:53;;;;;;;44.53;41.27;;;6.40;99.90;;;;;;5129187;27;20510;-76
2023/02/05 13:43:56;;;;;;;40.83;38.13;;;6.50;99.90;;;;;;5125125;27;20453;-75
2023/02/05 13:46:57;;;;;;;46.00;42.80;;;6.40;99.90;;;;;;5075473;27;20451;-75
2023/02/05 13:50:03;;;;;;;45.00;41.80;;;6.40;99.90;;;;;;5103420;27;20452;-75
2023/02/05 13:53:09;;;;;;;47.23;43.93;;;6.30;99.90;;;;;;5086157;27;20971;-75
2023/02/05 13:55:45;;;;;;;47.30;44.00;;;6.20;99.90;;;;;;5129319;27;20455;-76
2023/02/05 13:58:21;;;;;;;45.40;42.40;;;6.30;99.90;;;;;;5129054;27;20453;-75
2023/02/05 14:00:55;;;;;;;44.23;41.03;;;6.40;99.90;;;;;;5129399;28;20835;-75
2023/02/05 14:03:33;;;;;;;45.07;41.97;;;6.40;99.90;;;;;;5129259;28;20943;-74
2023/02/05 14:06:11;;;;;;;44.50;41.40;;;6.40;99.90;;;;;;5129090;28;20567;-75
2023/02/05 14:08:40;;;;;;;44.73;41.60;;;6.30;99.90;;;;;;5129072;28;20459;-75
2023/02/05 14:11:07;;;;;;;41.83;39.00;;;6.20;99.90;;;;;;5128685;28;20488;-75
2023/02/05 14:13:34;;;;;;;43.67;41.07;;;6.20;99.90;;;;;;5128793;28;20440;-75
2023/02/05 14:16:35;;;;;;;41.93;39.00;;;6.10;99.90;;;;;;5128600;28;20448;-74
2023/02/05 14:19:21;;;;;;;39.20;36.53;;;6.00;99.90;;;;;;5128841;28;20439;-75
2023/02/05 14:22:05;;;;;;;36.90;34.90;;;6.00;99.90;;;;;;5128883;28;20483;-75
2023/02/05 14:24:43;;;;;;;34.53;32.73;;;5.90;99.90;;;;;;5126412;28;20843;-75
2023/02/05 14:27:46;;;;;;;35.70;33.67;;;5.80;99.90;;;;;;5128691;28;20803;-75
2023/02/05 14:30:36;;;;;;;34.73;32.90;;;5.50;99.90;;;;;;5128567;28;20455;-75
2023/02/05 14:33:05;;;;;;;35.50;33.70;;;5.50;99.90;;;;;;5128282;28;20478;-75
2023/02/05 14:35:37;;;;;;;34.33;32.53;;;5.60;99.90;;;;;;5128186;28;20445;-75
2023/02/05 14:38:15;;;;;;;35.10;33.10;;;5.50;99.90;;;;;;5128501;28;20449;-75
2023/02/05 14:40:44;;;;;;;34.73;33.03;;;5.50;99.90;;;;;;5128155;28;20454;-75
2023/02/05 14:43:17;;;;;;;36.07;34.07;;;5.20;99.90;;;;;;5128160;28;20452;-75
2023/02/05 14:45:45;;;;;;;35.20;33.10;;;5.20;99.90;;;;;;5128144;27;20456;-76
2023/02/05 14:48:21;;;;;;;33.57;31.90;;;5.20;99.90;;;;;;5131357;27;20845;-75
2023/02/05 14:51:00;;;;;;;34.57;32.67;;;5.10;99.90;;;;;;5131726;27;20440;-74
2023/02/05 14:53:29;;;;;;;34.10;32.40;;;5.10;99.90;;;;;;5132158;27;20826;-75
2023/02/05 14:55:58;;;;;;;33.60;31.87;;;5.20;99.90;;;;;;5131726;27;20977;-75
2023/02/05 14:58:29;;;;;;;34.17;32.37;;;5.00;99.90;;;;;;5131921;27;20494;-74
2023/02/05 15:01:30;;;;;;;33.00;31.40;;;5.00;99.90;;;;;;5131692;27;20803;-74
2023/02/05 15:03:58;;;;;;;34.10;32.40;;;5.10;99.90;;;;;;5131748;27;20546;-74
2023/02/05 15:06:28;;;;;;;34.33;32.53;;;5.30;99.90;;;;;;5131413;27;20469;-74
2023/02/05 15:09:03;;;;;;;34.43;32.70;;;5.30;99.90;;;;;;5131374;27;20851;-75
2023/02/05 15:11:45;;;;;;;35.30;33.40;;;5.40;99.90;;;;;;5131572;27;20562;-75
2023/02/05 15:14:40;;;;;;;35.57;33.83;;;5.40;99.90;;;;;;5131506;27;20504;-74
2023/02/05 15:17:44;;;;;;;35.53;33.63;;;5.40;99.90;;;;;;5131797;27;20453;-75
2023/02/05 15:20:25;;;;;;;36.20;34.30;;;5.30;99.90;;;;;;5131640;27;20455;-75
2023/02/05 15:22:57;;;;;;;34.93;32.97;;;5.20;99.90;;;;;;5132026;27;20451;-75
2023/02/05 15:25:32;;;;;;;36.20;34.30;;;5.20;99.90;;;;;;5131870;27;20470;-75
2023/02/05 15:28:04;;;;;;;36.53;34.53;;;5.40;99.90;;;;;;5131758;27;21002;-75
2023/02/05 15:30:39;;;;;;;36.20;34.40;;;5.30;99.90;;;;;;5131697;27;20550;-74
2023/02/05 15:33:15;;;;;;;36.43;34.40;;;5.20;99.90;;;;;;5131798;27;20900;-74
2023/02/05 15:35:44;;;;;;;36.10;34.00;;;5.20;99.90;;;;;;5129173;27;21012;-74
2023/02/05 15:38:25;;;;;;;35.70;33.60;;;5.10;99.90;;;;;;5131359;27;20952;-73
2023/02/05 15:40:52;;;;;;;35.47;33.57;;;5.10;99.90;;;;;;5131359;27;20549;-74
2023/02/05 15:43:23;;;;;;;36.50;34.50;;;5.00;99.90;;;;;;5131173;27;20444;-73
2023/02/05 15:45:51;;;;;;;36.90;34.90;;;5.00;99.90;;;;;;5131304;27;20463;-75
2023/02/05 15:48:24;;;;;;;35.90;33.97;;;5.00;99.90;;;;;;5131013;27;20632;-74
2023/02/05 15:50:55;;;;;;;37.13;35.17;;;5.00;99.90;;;;;;5131026;27;20500;-74
2023/02/05 15:53:33;;;;;;;38.00;35.80;;;5.00;99.90;;;;;;5131103;27;20486;-74
2023/02/05 15:56:03;;;;;;;38.00;35.47;;;5.00;99.90;;;;;;5130639;27;20447;-75
2023/02/05 15:58:32;;;;;;;36.30;34.30;;;5.00;99.90;;;;;;5130503;27;20457;-75
2023/02/05 16:00:58;;;;;;;36.33;34.27;;;5.10;99.90;;;;;;5131030;27;20447;-75
2023/02/05 16:03:27;;;;;;;38.27;36.03;;;5.20;99.90;;;;;;5131063;27;20455;-75
2023/02/05 16:05:54;;;;;;;39.83;36.60;;;5.10;99.90;;;;;;5131123;27;20879;-75
2023/02/05 16:08:22;;;;;;;38.37;36.17;;;5.10;99.90;;;;;;5131136;27;20448;-75
2023/02/05 16:10:56;;;;;;;37.50;35.40;;;5.10;99.90;;;;;;5130839;27;20548;-74
2023/02/05 16:13:24;;;;;;;38.00;35.90;;;5.10;99.90;;;;;;5130881;27;20625;-74
2023/02/05 16:15:58;;;;;;;38.80;36.50;;;5.10;99.90;;;;;;5131089;27;20617;-74
2023/02/05 16:18:35;;;;;;;39.90;37.50;;;5.10;99.90;;;;;;5130731;27;20447;-74
2023/02/05 16:21:06;;;;;;;35.97;34.07;;;5.20;99.90;;;;;;5130662;27;20447;-74
2023/02/05 16:23:38;;;;;;;37.60;35.17;;;5.30;99.90;;;;;;5130936;27;20446;-74
2023/02/05 16:26:11;;;;;;;36.00;34.00;;;5.20;99.90;;;;;;5130889;27;20509;-74
2023/02/05 16:28:40;;;;;;;35.27;33.40;;;5.30;99.90;;;;;;5130969;27;20519;-74
2023/02/05 16:31:16;;;;;;;36.13;33.80;;;5.30;99.90;;;;;;5131754;27;20456;-74
2023/02/05 16:33:50;;;;;;;36.60;34.57;;;5.30;99.90;;;;;;5131465;27;20712;-74
2023/02/05 16:36:20;;;;;;;38.80;36.53;;;5.30;99.90;;;;;;5131420;27;20812;-75
2023/02/05 16:38:51;;;;;;;36.60;34.60;;;5.30;99.90;;;;;;5131387;27;20780;-74
2023/02/05 16:41:21;;;;;;;36.27;34.27;;;5.30;99.90;;;;;;5131503;27;20816;-75
2023/02/05 16:43:50;;;;;;;37.40;35.07;;;5.30;99.90;;;;;;5131361;27;20449;-75
2023/02/05 16:46:29;;;;;;;36.47;34.27;;;5.30;99.90;;;;;;5131332;27;20455;-76
2023/02/05 16:48:58;;;;;;;35.90;33.90;;;5.40;99.90;;;;;;5131264;27;20786;-76
2023/02/05 16:51:37;;;;;;;36.30;34.10;;;5.30;99.90;;;;;;5131134;27;20859;-76
2023/02/05 16:54:27;;;;;;;35.87;33.87;;;5.30;99.90;;;;;;5131554;27;20437;-76
2023/02/05 16:56:58;;;;;;;37.23;35.13;;;5.40;99.90;;;;;;5131292;27;20441;-76
2023/02/05 16:59:29;;;;;;;37.30;34.93;;;5.40;99.90;;;;;;5131200;27;20447;-76
2023/02/05 17:01:58;;;;;;;40.90;38.30;;;5.40;99.90;;;;;;5130868;27;20445;-75
2023/02/05 17:04:29;;;;;;;38.67;36.20;;;5.40;99.90;;;;;;5130998;27;20443;-75
2023/02/05 17:06:58;;;;;;;35.30;33.30;;;5.30;99.90;;;;;;5130747;27;20530;-74
2023/02/05 17:09:33;;;;;;;36.70;34.50;;;5.20;99.90;;;;;;5130371;27;20947;-75
2023/02/05 17:12:26;;;;;;;37.77;35.50;;;5.20;99.90;;;;;;5130446;27;20506;-75
2023/02/05 17:14:55;;;;;;;36.47;34.37;;;5.20;99.90;;;;;;5092286;27;20468;-76
2023/02/05 17:17:24;;;;;;;38.10;35.73;;;5.20;99.90;;;;;;5132830;27;20432;-77
2023/02/05 17:20:04;;;;;;;38.00;35.70;;;5.30;99.90;;;;;;5145824;27;20446;-77
2023/02/05 17:22:33;;;;;;;38.57;36.27;;;5.40;99.90;;;;;;5134068;27;20437;-77
2023/02/05 17:25:00;;;;;;;38.13;35.77;;;5.30;99.90;;;;;;5130803;27;20451;-75
2023/02/05 17:27:30;;;;;;;36.33;34.13;;;5.30;99.90;;;;;;5130744;27;20519;-75
2023/02/05 17:29:58;;;;;;;38.77;36.17;;;5.30;99.90;;;;;;5130693;27;20451;-75
2023/02/05 17:32:28;;;;;;;38.43;36.03;;;5.40;99.90;;;;;;5130703;27;20484;-76
2023/02/05 17:34:54;;;;;;;39.20;36.50;;;5.40;99.90;;;;;;5130672;27;20455;-77
2023/02/05 17:37:21;;;;;;;38.20;35.80;;;5.40;99.90;;;;;;5130659;27;20476;-76
2023/02/05 17:39:50;;;;;;;39.70;37.10;;;5.40;99.90;;;;;;5130932;27;20463;-76
2023/02/05 17:42:21;;;;;;;39.70;37.30;;;5.30;99.90;;;;;;5130346;27;20470;-77
2023/02/05 17:44:47;;;;;;;40.27;37.57;;;5.40;99.90;;;;;;5130448;27;20510;-78
2023/02/05 17:47:14;;;;;;;40.37;37.57;;;5.40;99.90;;;;;;5130082;27;20451;-77
2023/02/05 17:49:42;;;;;;;39.30;36.70;;;5.50;99.90;;;;;;5129876;27;20456;-77
2023/02/05 17:52:10;;;;;;;39.07;36.67;;;5.40;99.90;;;;;;5130158;27;20473;-78
2023/02/05 17:54:37;;;;;;;40.43;37.77;;;5.40;99.90;;;;;;5130475;27;20444;-79
2023/02/05 17:57:13;;;;;;;40.73;38.20;;;5.40;99.90;;;;;;5130358;27;20958;-80
